createdAt,value
2023-04-22T00:00:40.677Z,5.81
2023-04-22T00:01:40.665Z,5.75
2023-04-22T00:02:40.697Z,5.74
2023-04-22T00:03:43.697Z,5.79
2023-04-22T00:04:40.902Z,5.75
2023-04-22T00:05:40.650Z,5.68
2023-04-22T00:06:40.595Z,5.64
2023-04-22T00:07:40.587Z,5.60
2023-04-22T00:08:40.567Z,5.64
2023-04-22T00:09:40.908Z,5.63
2023-04-22T00:10:40.566Z,5.65
2023-04-22T00:11:40.536Z,5.65
2023-04-22T00:12:40.558Z,5.65
2023-04-22T00:13:40.520Z,5.72
2023-04-22T00:14:40.519Z,5.68
2023-04-22T00:15:40.516Z,5.76
2023-04-22T00:16:40.609Z,5.68
2023-04-22T00:17:40.552Z,5.75
2023-04-22T00:18:40.462Z,5.68
2023-04-22T00:19:40.859Z,5.79
2023-04-22T00:20:40.439Z,5.74
2023-04-22T00:21:40.454Z,5.74
2023-04-22T00:22:40.413Z,5.71
2023-04-22T00:23:40.422Z,5.75
2023-04-22T00:24:40.388Z,5.85
2023-04-22T00:25:40.388Z,5.94
2023-04-22T00:26:40.368Z,5.94
2023-04-22T00:27:40.393Z,5.91
2023-04-22T00:28:40.345Z,5.94
2023-04-22T00:29:40.588Z,6.00
2023-04-22T00:30:40.349Z,6.03
2023-04-22T00:31:40.354Z,6.06
2023-04-22T00:32:40.350Z,6.06
2023-04-22T00:33:40.306Z,6.14
2023-04-22T00:34:40.300Z,6.18
2023-04-22T00:35:40.286Z,6.17
2023-04-22T00:36:40.252Z,6.22
2023-04-22T00:37:40.266Z,6.30
2023-04-22T00:38:40.238Z,6.28
2023-04-22T00:39:40.615Z,6.37
2023-04-22T00:40:40.212Z,6.36
2023-04-22T00:41:40.207Z,6.36
2023-04-22T00:42:40.185Z,6.48
2023-04-22T00:43:40.196Z,6.44
2023-04-22T00:44:40.162Z,6.52
2023-04-22T00:45:40.186Z,6.52
2023-04-22T00:46:40.221Z,6.46
2023-04-22T00:47:40.189Z,6.52
2023-04-22T00:48:40.120Z,6.46
2023-04-22T00:49:40.380Z,6.41
2023-04-22T00:50:40.095Z,6.48
2023-04-22T00:51:40.097Z,6.43
2023-04-22T00:52:40.087Z,6.43
2023-04-22T00:53:40.087Z,6.41
2023-04-22T00:54:40.053Z,6.40
2023-04-22T00:55:40.056Z,6.34
2023-04-22T00:56:40.044Z,6.37
2023-04-22T00:57:40.070Z,6.37
2023-04-22T00:58:40.032Z,6.37
2023-04-22T00:59:40.336Z,6.36
2023-04-22T01:00:40.045Z,6.31
2023-04-22T01:01:39.982Z,6.34
2023-04-22T01:02:40.166Z,6.37
2023-04-22T01:03:40.189Z,6.34
2023-04-22T01:04:39.967Z,6.37
2023-04-22T01:05:40.058Z,6.36
2023-04-22T01:06:39.922Z,6.51
2023-04-22T01:07:39.944Z,6.41
2023-04-22T01:08:39.902Z,6.69
2023-04-22T01:09:40.251Z,6.59
2023-04-22T01:10:39.891Z,6.73
2023-04-22T01:11:39.867Z,6.77
2023-04-22T01:12:39.869Z,6.70
2023-04-22T01:13:39.868Z,6.74
2023-04-22T01:14:39.844Z,6.70
2023-04-22T01:15:39.824Z,6.64
2023-04-22T01:16:39.838Z,6.52
2023-04-22T01:17:39.857Z,6.56
2023-04-22T01:18:39.814Z,6.62
2023-04-22T01:19:40.225Z,6.55
2023-04-22T01:20:39.766Z,6.59
2023-04-22T01:21:39.829Z,6.54
2023-04-22T01:22:39.758Z,6.52
2023-04-22T01:23:39.762Z,6.44
2023-04-22T01:24:39.734Z,6.46
2023-04-22T01:25:39.715Z,6.37
2023-04-22T01:26:39.730Z,6.28
2023-04-22T01:27:39.699Z,6.19
2023-04-22T01:28:39.688Z,6.17
2023-04-22T01:29:40.115Z,6.11
2023-04-22T01:30:39.663Z,6.12
2023-04-22T01:31:39.696Z,6.06
2023-04-22T01:32:39.673Z,6.12
2023-04-22T01:33:39.621Z,6.01
2023-04-22T01:34:39.629Z,6.04
2023-04-22T01:35:39.605Z,6.04
2023-04-22T01:36:39.636Z,6.06
2023-04-22T01:37:39.615Z,5.99
2023-04-22T01:38:39.570Z,6.69
2023-04-22T01:39:39.831Z,6.97
2023-04-22T01:40:40.450Z,7.09
2023-04-22T01:41:39.537Z,7.15
2023-04-22T01:42:39.534Z,7.10
2023-04-22T01:43:39.518Z,7.12
2023-04-22T01:44:39.529Z,7.12
2023-04-22T01:45:39.578Z,7.25
2023-04-22T01:46:39.486Z,7.58
2023-04-22T01:47:39.540Z,7.55
2023-04-22T01:48:39.461Z,7.71
2023-04-22T01:49:39.768Z,7.71
2023-04-22T01:50:39.440Z,7.55
2023-04-22T01:51:39.430Z,7.64
2023-04-22T01:52:39.444Z,7.49
2023-04-22T01:53:39.441Z,7.45
2023-04-22T01:54:39.391Z,7.35
2023-04-22T01:55:39.384Z,7.25
2023-04-22T01:56:39.373Z,7.34
2023-04-22T01:57:39.378Z,7.31
2023-04-22T01:58:39.367Z,7.31
2023-04-22T01:59:39.597Z,7.31
2023-04-22T02:00:39.328Z,7.30
2023-04-22T02:01:39.361Z,7.24
2023-04-22T02:02:39.352Z,7.31
2023-04-22T02:03:39.396Z,7.15
2023-04-22T02:04:39.305Z,7.17
2023-04-22T02:05:39.272Z,7.12
2023-04-22T02:06:39.287Z,7.06
2023-04-22T02:07:39.290Z,6.97
2023-04-22T02:08:39.262Z,6.84
2023-04-22T02:09:39.720Z,6.87
2023-04-22T02:10:39.222Z,6.87
2023-04-22T02:11:39.228Z,6.69
2023-04-22T02:12:39.219Z,6.73
2023-04-22T02:13:39.188Z,6.64
2023-04-22T02:14:39.172Z,6.58
2023-04-22T02:15:39.210Z,6.67
2023-04-22T02:16:39.164Z,6.58
2023-04-22T02:17:39.162Z,6.48
2023-04-22T02:18:39.133Z,6.40
2023-04-22T02:19:39.625Z,6.30
2023-04-22T02:20:39.131Z,6.36
2023-04-22T02:21:39.121Z,6.27
2023-04-22T02:22:39.083Z,6.30
2023-04-22T02:23:39.069Z,6.25
2023-04-22T02:24:39.080Z,6.18
2023-04-22T02:25:39.090Z,6.11
2023-04-22T02:26:39.064Z,6.09
2023-04-22T02:27:39.050Z,6.09
2023-04-22T02:28:39.016Z,6.11
2023-04-22T02:29:39.199Z,6.04
2023-04-22T02:30:39.033Z,6.04
2023-04-22T02:31:39.051Z,6.06
2023-04-22T02:32:39.105Z,6.08
2023-04-22T02:33:38.994Z,6.09
2023-04-22T02:34:38.947Z,6.03
2023-04-22T02:35:38.962Z,6.04
2023-04-22T02:36:38.933Z,6.08
2023-04-22T02:37:38.928Z,6.08
2023-04-22T02:38:38.902Z,6.14
2023-04-22T02:39:39.116Z,6.17
2023-04-22T02:40:38.883Z,6.14
2023-04-22T02:41:38.912Z,6.09
2023-04-22T02:42:38.877Z,6.03
2023-04-22T02:43:38.842Z,6.14
2023-04-22T02:44:38.838Z,6.04
2023-04-22T02:45:38.837Z,6.11
2023-04-22T02:46:38.904Z,6.09
2023-04-22T02:47:38.932Z,6.14
2023-04-22T02:48:38.792Z,6.06
2023-04-22T02:49:39.117Z,6.17
2023-04-22T02:50:38.786Z,6.17
2023-04-22T02:51:38.774Z,6.21
2023-04-22T02:52:38.749Z,6.19
2023-04-22T02:53:38.738Z,6.37
2023-04-22T02:54:38.739Z,6.37
2023-04-22T02:55:38.717Z,6.37
2023-04-22T02:56:38.707Z,6.52
2023-04-22T02:57:38.725Z,6.49
2023-04-22T02:58:38.699Z,6.58
2023-04-22T02:59:38.869Z,6.92
2023-04-22T03:00:38.751Z,7.06
2023-04-22T03:01:38.647Z,7.17
2023-04-22T03:02:39.043Z,7.27
2023-04-22T03:03:38.777Z,7.42
2023-04-22T03:04:38.731Z,7.49
2023-04-22T03:05:38.610Z,7.61
2023-04-22T03:06:38.685Z,7.77
2023-04-22T03:07:38.572Z,7.83
2023-04-22T03:08:38.713Z,7.86
2023-04-22T03:09:38.826Z,7.80
2023-04-22T03:10:38.571Z,7.86
2023-04-22T03:11:38.531Z,7.82
2023-04-22T03:12:38.539Z,7.80
2023-04-22T03:13:38.555Z,7.77
2023-04-22T03:14:38.540Z,7.82
2023-04-22T03:15:38.543Z,7.90
2023-04-22T03:16:38.538Z,7.97
2023-04-22T03:17:38.493Z,8.11
2023-04-22T03:18:38.470Z,8.16
2023-04-22T03:19:38.740Z,8.30
2023-04-22T03:20:38.468Z,8.22
2023-04-22T03:21:40.521Z,8.26
2023-04-22T03:22:38.411Z,8.33
2023-04-22T03:23:38.405Z,8.12
2023-04-22T03:24:38.388Z,8.10
2023-04-22T03:25:38.390Z,8.01
2023-04-22T03:26:38.368Z,7.89
2023-04-22T03:27:38.372Z,7.83
2023-04-22T03:28:38.336Z,7.67
2023-04-22T03:29:38.591Z,7.58
2023-04-22T03:30:38.334Z,7.40
2023-04-22T03:31:38.309Z,7.30
2023-04-22T03:32:38.358Z,7.13
2023-04-22T03:33:38.282Z,7.09
2023-04-22T03:34:38.288Z,7.02
2023-04-22T03:35:38.275Z,6.94
2023-04-22T03:36:38.258Z,6.76
2023-04-22T03:37:38.232Z,6.66
2023-04-22T03:38:38.254Z,6.62
2023-04-22T03:39:45.524Z,6.48
2023-04-22T03:40:46.266Z,6.38
2023-04-22T03:41:38.191Z,6.36
2023-04-22T03:42:38.269Z,6.30
2023-04-22T03:43:38.199Z,6.27
2023-04-22T03:44:38.159Z,6.15
2023-04-22T03:45:38.297Z,6.18
2023-04-22T03:46:38.132Z,6.11
2023-04-22T03:47:38.163Z,6.18
2023-04-22T03:48:38.140Z,6.19
2023-04-22T03:49:38.401Z,6.22
2023-04-22T03:50:38.100Z,6.11
2023-04-22T03:51:38.082Z,6.27
2023-04-22T03:52:38.082Z,6.31
2023-04-22T03:53:38.063Z,6.31
2023-04-22T03:54:38.050Z,6.36
2023-04-22T03:55:38.081Z,6.37
2023-04-22T03:56:38.036Z,6.44
2023-04-22T03:57:38.013Z,6.44
2023-04-22T03:58:38.011Z,6.48
2023-04-22T03:59:38.187Z,6.49
2023-04-22T04:00:37.982Z,6.58
2023-04-22T04:01:38.008Z,6.62
2023-04-22T04:02:38.154Z,6.66
2023-04-22T04:03:38.221Z,6.64
2023-04-22T04:04:38.289Z,6.67
2023-04-22T04:05:38.002Z,6.69
2023-04-22T04:06:37.913Z,6.73
2023-04-22T04:07:37.931Z,6.71
2023-04-22T04:08:37.895Z,6.73
2023-04-22T04:09:38.228Z,6.76
2023-04-22T04:10:37.887Z,6.71
2023-04-22T04:11:37.871Z,6.77
2023-04-22T04:12:37.867Z,6.84
2023-04-22T04:13:45.471Z,6.74
2023-04-22T04:14:44.941Z,7.12
2023-04-22T04:15:37.903Z,7.30
2023-04-22T04:16:45.752Z,7.52
2023-04-22T04:17:37.848Z,7.64
2023-04-22T04:18:44.901Z,7.83
2023-04-22T04:19:37.981Z,8.23
2023-04-22T04:20:44.901Z,8.34
2023-04-22T04:21:44.871Z,8.44
2023-04-22T04:22:37.791Z,8.61
2023-04-22T04:23:37.722Z,8.61
2023-04-22T04:24:37.737Z,8.73
2023-04-22T04:25:37.788Z,8.68
2023-04-22T04:26:37.684Z,8.81
2023-04-22T04:27:37.675Z,8.76
2023-04-22T04:28:37.694Z,8.81
2023-04-22T04:29:37.832Z,8.77
2023-04-22T04:30:37.636Z,8.70
2023-04-22T04:31:37.710Z,8.68
2023-04-22T04:32:37.683Z,8.63
2023-04-22T04:33:37.620Z,8.56
2023-04-22T04:34:37.676Z,8.48
2023-04-22T04:35:37.582Z,8.48
2023-04-22T04:36:37.566Z,8.47
2023-04-22T04:37:37.580Z,8.26
2023-04-22T04:38:37.570Z,8.18
2023-04-22T04:39:37.911Z,8.18
2023-04-22T04:40:37.523Z,7.97
2023-04-22T04:41:37.506Z,7.89
2023-04-22T04:42:37.499Z,7.85
2023-04-22T04:43:37.503Z,7.68
2023-04-22T04:44:37.484Z,7.63
2023-04-22T04:45:37.461Z,7.64
2023-04-22T04:46:37.460Z,7.67
2023-04-22T04:47:37.449Z,7.58
2023-04-22T04:48:37.470Z,7.63
2023-04-22T04:49:37.548Z,7.61
2023-04-22T04:50:37.432Z,7.61
2023-04-22T04:51:37.396Z,7.55
2023-04-22T04:52:37.389Z,7.60
2023-04-22T04:53:37.388Z,7.45
2023-04-22T04:54:37.377Z,7.52
2023-04-22T04:55:37.352Z,7.42
2023-04-22T04:56:37.356Z,7.40
2023-04-22T04:57:38.470Z,7.49
2023-04-22T04:58:38.555Z,7.57
2023-04-22T04:59:37.533Z,7.50
2023-04-22T05:00:37.288Z,7.48
2023-04-22T05:01:37.295Z,7.63
2023-04-22T05:02:37.390Z,7.69
2023-04-22T05:03:37.443Z,7.64
2023-04-22T05:04:37.370Z,7.77
2023-04-22T05:05:37.234Z,7.74
2023-04-22T05:06:37.242Z,7.79
2023-04-22T05:07:37.241Z,7.89
2023-04-22T05:08:37.213Z,7.93
2023-04-22T05:09:37.521Z,8.07
2023-04-22T05:10:37.199Z,8.18
2023-04-22T05:11:37.187Z,8.33
2023-04-22T05:12:37.180Z,8.30
2023-04-22T05:13:37.149Z,8.56
2023-04-22T05:14:37.145Z,8.70
2023-04-22T05:15:37.124Z,8.92
2023-04-22T05:16:37.291Z,9.13
2023-04-22T05:17:37.143Z,9.36
2023-04-22T05:18:37.087Z,9.43
2023-04-22T05:19:37.243Z,9.50
2023-04-22T05:20:37.111Z,9.60
2023-04-22T05:21:37.096Z,9.61
2023-04-22T05:22:37.043Z,9.66
2023-04-22T05:23:37.040Z,9.61
2023-04-22T05:24:37.031Z,9.61
2023-04-22T05:25:37.021Z,9.61
2023-04-22T05:26:37.098Z,9.61
2023-04-22T05:27:37.011Z,9.74
2023-04-22T05:28:36.985Z,9.68
2023-04-22T05:29:36.993Z,9.71
2023-04-22T05:30:36.950Z,9.78
2023-04-22T05:31:37.041Z,9.86
2023-04-22T05:32:36.955Z,9.89
2023-04-22T05:33:36.940Z,9.87
2023-04-22T05:34:36.904Z,9.97
2023-04-22T05:35:36.922Z,10.07
2023-04-22T05:36:37.007Z,10.12
2023-04-22T05:37:36.896Z,10.26
2023-04-22T05:38:36.869Z,10.45
2023-04-22T05:39:36.904Z,10.70
2023-04-22T05:40:36.864Z,10.94
2023-04-22T05:41:36.829Z,11.02
2023-04-22T05:42:36.838Z,11.07
2023-04-22T05:43:36.824Z,11.11
2023-04-22T05:44:36.833Z,11.17
2023-04-22T05:45:36.854Z,11.15
2023-04-22T05:46:36.814Z,11.11
2023-04-22T05:47:36.801Z,11.39
2023-04-22T05:48:36.777Z,11.33
2023-04-22T05:49:36.766Z,11.28
2023-04-22T05:50:36.729Z,11.44
2023-04-22T05:51:36.722Z,11.44
2023-04-22T05:52:36.750Z,11.42
2023-04-22T05:53:36.713Z,11.36
2023-04-22T05:54:36.687Z,11.40
2023-04-22T05:55:36.692Z,11.42
2023-04-22T05:56:36.666Z,11.54
2023-04-22T05:57:36.666Z,11.62
2023-04-22T05:58:36.647Z,11.67
2023-04-22T05:59:36.633Z,11.69
2023-04-22T06:00:36.631Z,11.65
2023-04-22T06:01:36.600Z,11.70
2023-04-22T06:02:36.739Z,11.61
2023-04-22T06:03:36.886Z,11.67
2023-04-22T06:04:37.727Z,11.75
2023-04-22T06:05:36.669Z,11.88
2023-04-22T06:06:36.567Z,11.99
2023-04-22T06:07:36.554Z,12.10
2023-04-22T06:08:36.544Z,12.20
2023-04-22T06:09:36.510Z,12.31
2023-04-22T06:10:36.520Z,12.23
2023-04-22T06:11:36.488Z,12.39
2023-04-22T06:12:36.482Z,12.45
2023-04-22T06:13:36.467Z,12.56
2023-04-22T06:14:36.485Z,12.68
2023-04-22T06:15:36.467Z,12.87
2023-04-22T06:16:36.454Z,13.22
2023-04-22T06:17:36.435Z,13.84
2023-04-22T06:18:38.043Z,14.70
2023-04-22T06:19:36.468Z,15.46
2023-04-22T06:20:36.396Z,16.14
2023-04-22T06:21:36.389Z,16.58
2023-04-22T06:22:36.364Z,16.71
2023-04-22T06:23:36.371Z,17.18
2023-04-22T06:24:36.360Z,17.70
2023-04-22T06:25:36.343Z,18.05
2023-04-22T06:26:36.332Z,18.08
2023-04-22T06:27:36.320Z,17.89
2023-04-22T06:28:36.318Z,18.18
2023-04-22T06:29:36.326Z,17.93
2023-04-22T06:30:36.266Z,17.71
2023-04-22T06:31:36.374Z,17.55
2023-04-22T06:32:36.333Z,17.51
2023-04-22T06:33:36.266Z,17.37
2023-04-22T06:34:36.226Z,17.51
2023-04-22T06:35:38.474Z,16.89
2023-04-22T06:36:36.210Z,16.78
2023-04-22T06:37:36.194Z,16.82
2023-04-22T06:38:36.237Z,16.76
2023-04-22T06:39:36.234Z,17.19
2023-04-22T06:40:36.217Z,17.64
2023-04-22T06:41:36.155Z,18.05
2023-04-22T06:42:36.144Z,18.55
2023-04-22T06:43:36.124Z,18.55
2023-04-22T06:44:36.126Z,18.62
2023-04-22T06:45:36.105Z,18.73
2023-04-22T06:46:36.148Z,18.54
2023-04-22T06:47:36.095Z,18.41
2023-04-22T06:48:36.085Z,18.72
2023-04-22T06:49:36.076Z,19.07
2023-04-22T06:50:36.061Z,19.37
2023-04-22T06:51:36.068Z,19.44
2023-04-22T06:52:36.054Z,19.33
2023-04-22T06:53:36.019Z,19.10
2023-04-22T06:54:36.002Z,18.98
2023-04-22T06:55:36.024Z,19.11
2023-04-22T06:56:36.044Z,19.26
2023-04-22T06:57:35.980Z,19.31
2023-04-22T06:58:36.004Z,18.91
2023-04-22T06:59:36.093Z,18.32
2023-04-22T07:00:35.953Z,18.27
2023-04-22T07:01:35.964Z,18.66
2023-04-22T07:02:35.964Z,19.00
2023-04-22T07:03:36.135Z,19.06
2023-04-22T07:04:36.016Z,19.00
2023-04-22T07:05:37.241Z,19.06
2023-04-22T07:06:35.928Z,19.18
2023-04-22T07:07:35.873Z,19.07
2023-04-22T07:08:35.860Z,18.80
2023-04-22T07:09:36.091Z,18.44
2023-04-22T07:10:35.904Z,18.32
2023-04-22T07:11:36.005Z,18.36
2023-04-22T07:12:35.868Z,18.54
2023-04-22T07:13:35.790Z,18.47
2023-04-22T07:14:36.010Z,18.39
2023-04-22T07:15:35.768Z,18.03
2023-04-22T07:16:35.807Z,17.37
2023-04-22T07:17:35.830Z,17.30
2023-04-22T07:18:35.765Z,17.44
2023-04-22T07:19:35.759Z,17.58
2023-04-22T07:20:35.707Z,17.87
2023-04-22T07:21:35.706Z,18.29
2023-04-22T07:22:35.723Z,18.45
2023-04-22T07:23:35.679Z,18.54
2023-04-22T07:24:35.758Z,18.21
2023-04-22T07:25:35.674Z,17.46
2023-04-22T07:26:35.668Z,16.91
2023-04-22T07:27:37.033Z,17.04
2023-04-22T07:28:35.639Z,17.18
2023-04-22T07:29:35.696Z,16.93
2023-04-22T07:30:35.599Z,17.04
2023-04-22T07:31:35.643Z,17.07
2023-04-22T07:32:35.604Z,17.01
2023-04-22T07:33:35.813Z,17.14
2023-04-22T07:34:36.581Z,17.40
2023-04-22T07:35:35.584Z,17.41
2023-04-22T07:36:35.534Z,17.00
2023-04-22T07:37:35.539Z,16.98
2023-04-22T07:38:35.539Z,16.82
2023-04-22T07:39:35.499Z,16.63
2023-04-22T07:40:35.496Z,16.43
2023-04-22T07:41:35.530Z,16.35
2023-04-22T07:42:35.464Z,16.07
2023-04-22T07:43:35.462Z,16.08
2023-04-22T07:44:37.030Z,16.09
2023-04-22T07:45:35.497Z,16.04
2023-04-22T07:46:35.488Z,16.07
2023-04-22T07:47:35.440Z,16.20
2023-04-22T07:48:35.421Z,16.21
2023-04-22T07:49:35.605Z,16.28
2023-04-22T07:52:13.567Z,16.27
2023-04-22T07:53:14.309Z,16.34
2023-04-22T07:55:22.405Z,16.71
2023-04-22T07:56:22.406Z,16.63
2023-04-22T07:57:22.331Z,16.76
2023-04-22T07:58:22.344Z,16.83
2023-04-22T07:59:22.306Z,16.98
2023-04-22T08:00:22.420Z,17.12
2023-04-22T08:01:22.340Z,17.23
2023-04-22T08:02:22.366Z,17.48
2023-04-22T08:03:22.393Z,17.54
2023-04-22T08:04:22.456Z,17.71
2023-04-22T08:05:22.306Z,17.75
2023-04-22T08:06:22.264Z,17.44
2023-04-22T08:08:22.206Z,17.25
2023-04-22T08:09:22.194Z,17.23
2023-04-22T08:10:22.674Z,17.30
2023-04-22T08:11:23.513Z,17.14
2023-04-22T08:12:22.192Z,17.22
2023-04-22T08:13:22.175Z,17.28
2023-04-22T08:14:22.189Z,17.44
2023-04-22T08:15:22.138Z,17.51
2023-04-22T08:16:22.343Z,17.44
2023-04-22T08:17:22.284Z,17.64
2023-04-22T08:18:22.147Z,17.70
2023-04-22T08:19:22.106Z,17.49
2023-04-22T08:20:22.129Z,17.43
2023-04-22T08:21:22.145Z,17.34
2023-04-22T08:22:22.085Z,17.31
2023-04-22T08:23:22.072Z,17.25
2023-04-22T08:24:22.087Z,17.21
2023-04-22T08:25:22.027Z,17.44
2023-04-22T08:26:22.017Z,17.16
2023-04-22T08:27:22.051Z,17.11
2023-04-22T08:28:22.007Z,17.14
2023-04-22T08:29:21.990Z,17.11
2023-04-22T08:30:21.997Z,17.14
2023-04-22T08:31:21.985Z,17.31
2023-04-22T08:32:22.000Z,17.43
2023-04-22T08:33:21.952Z,17.51
2023-04-22T08:34:21.939Z,17.56
2023-04-22T08:35:21.929Z,17.63
2023-04-22T08:36:21.929Z,17.64
2023-04-22T08:37:21.891Z,17.68
2023-04-22T08:38:21.953Z,17.70
2023-04-22T08:39:21.889Z,17.75
2023-04-22T08:40:21.942Z,17.75
2023-04-22T08:41:21.858Z,17.37
2023-04-22T08:42:21.847Z,17.25
2023-04-22T08:43:21.834Z,17.34
2023-04-22T08:44:21.839Z,17.31
2023-04-22T08:45:21.834Z,17.44
2023-04-22T08:46:21.821Z,17.48
2023-04-22T08:47:21.786Z,17.59
2023-04-22T08:48:21.794Z,17.54
2023-04-22T08:49:21.746Z,17.64
2023-04-22T08:50:21.831Z,17.54
2023-04-22T08:51:21.758Z,17.49
2023-04-22T08:52:21.739Z,17.51
2023-04-22T08:53:24.247Z,17.22
2023-04-22T08:54:21.692Z,17.19
2023-04-22T08:55:21.679Z,16.78
2023-04-22T08:56:21.704Z,16.82
2023-04-22T08:57:21.654Z,16.88
2023-04-22T08:58:21.646Z,17.01
2023-04-22T08:59:21.633Z,17.21
2023-04-22T09:00:21.659Z,17.41
2023-04-22T09:01:21.648Z,17.55
2023-04-22T09:02:21.655Z,17.54
2023-04-22T09:03:21.655Z,17.78
2023-04-22T09:04:21.731Z,17.70
2023-04-22T09:05:21.571Z,17.81
2023-04-22T09:06:21.550Z,17.82
2023-04-22T09:07:21.552Z,17.77
2023-04-22T09:08:21.552Z,17.52
2023-04-22T09:09:21.532Z,17.30
2023-04-22T09:10:21.503Z,16.97
2023-04-22T09:11:21.496Z,16.67
2023-04-22T09:12:21.517Z,16.63
2023-04-22T09:13:21.532Z,16.60
2023-04-22T09:14:21.458Z,16.61
2023-04-22T09:15:21.462Z,16.63
2023-04-22T09:16:21.488Z,16.58
2023-04-22T09:17:21.480Z,16.73
2023-04-22T09:18:21.423Z,16.61
2023-04-22T09:19:21.414Z,16.78
2023-04-22T09:20:21.416Z,16.58
2023-04-22T09:21:21.381Z,16.60
2023-04-22T09:22:21.386Z,16.70
2023-04-22T09:23:21.373Z,16.76
2023-04-22T09:24:21.369Z,16.78
2023-04-22T09:25:24.094Z,16.73
2023-04-22T09:26:21.321Z,16.81
2023-04-22T09:27:21.332Z,16.75
2023-04-22T09:28:21.323Z,16.83
2023-04-22T09:29:21.309Z,17.07
2023-04-22T09:30:21.280Z,17.26
2023-04-22T09:31:21.277Z,17.16
2023-04-22T09:32:21.283Z,16.96
2023-04-22T09:33:21.262Z,17.11
2023-04-22T09:34:21.287Z,17.12
2023-04-22T09:35:21.226Z,17.18
2023-04-22T09:36:21.258Z,17.23
2023-04-22T09:37:21.199Z,17.06
2023-04-22T09:38:21.186Z,17.04
2023-04-22T09:39:21.207Z,17.19
2023-04-22T09:40:21.204Z,17.31
2023-04-22T09:41:21.174Z,17.38
2023-04-22T09:42:21.141Z,17.41
2023-04-22T09:43:21.147Z,17.40
2023-04-22T09:44:21.139Z,17.04
2023-04-22T09:45:21.111Z,16.96
2023-04-22T09:46:21.196Z,17.15
2023-04-22T09:47:21.084Z,17.04
2023-04-22T09:48:21.107Z,17.19
2023-04-22T09:49:21.102Z,17.23
2023-04-22T09:50:21.076Z,17.38
2023-04-22T09:51:21.062Z,17.28
2023-04-22T09:52:21.233Z,17.03
2023-04-22T09:53:21.042Z,17.14
2023-04-22T09:54:21.007Z,17.30
2023-04-22T09:55:21.009Z,17.36
2023-04-22T09:56:20.988Z,17.25
2023-04-22T09:57:20.993Z,17.41
2023-04-22T09:58:21.078Z,17.38
2023-04-22T09:59:20.991Z,17.46
2023-04-22T10:00:20.981Z,17.79
2023-04-22T10:01:20.995Z,17.75
2023-04-22T10:02:20.978Z,17.82
2023-04-22T10:03:21.020Z,17.86
2023-04-22T10:04:20.940Z,17.59
2023-04-22T10:05:20.895Z,17.58
2023-04-22T10:06:20.887Z,17.64
2023-04-22T10:07:20.862Z,17.81
2023-04-22T10:08:20.881Z,17.78
2023-04-22T10:09:20.837Z,17.74
2023-04-22T10:10:20.849Z,17.87
2023-04-22T10:11:20.814Z,17.97
2023-04-22T10:12:29.401Z,17.79
2023-04-22T10:13:21.811Z,17.89
2023-04-22T10:14:20.781Z,17.70
2023-04-22T10:15:20.776Z,17.71
2023-04-22T10:16:20.819Z,17.44
2023-04-22T10:17:20.752Z,17.37
2023-04-22T10:18:20.758Z,17.30
2023-04-22T10:19:20.737Z,17.41
2023-04-22T10:20:20.716Z,17.54
2023-04-22T10:21:20.703Z,17.70
2023-04-22T10:22:20.731Z,17.79
2023-04-22T10:23:20.677Z,17.82
2023-04-22T10:24:20.695Z,17.79
2023-04-22T10:25:20.812Z,17.70
2023-04-22T10:26:20.640Z,17.74
2023-04-22T10:27:20.629Z,17.81
2023-04-22T10:28:20.629Z,17.78
2023-04-22T10:29:20.633Z,17.74
2023-04-22T10:30:20.598Z,17.82
2023-04-22T10:31:20.606Z,17.92
2023-04-22T10:32:20.612Z,17.86
2023-04-22T10:33:20.561Z,17.79
2023-04-22T10:34:20.574Z,17.75
2023-04-22T10:35:20.536Z,17.92
2023-04-22T10:36:20.543Z,18.03
2023-04-22T10:37:20.516Z,18.23
2023-04-22T10:38:20.500Z,18.47
2023-04-22T10:39:20.490Z,18.67
2023-04-22T10:40:20.516Z,18.80
2023-04-22T10:41:20.466Z,18.99
2023-04-22T10:42:20.462Z,18.63
2023-04-22T10:43:20.454Z,18.37
2023-04-22T10:44:20.431Z,18.18
2023-04-22T10:45:20.452Z,18.02
2023-04-22T10:46:20.419Z,17.74
2023-04-22T10:47:20.413Z,17.70
2023-04-22T10:48:20.385Z,17.90
2023-04-22T10:49:20.403Z,18.03
2023-04-22T10:50:20.383Z,18.14
2023-04-22T10:51:20.372Z,18.25
2023-04-22T10:52:20.359Z,18.08
2023-04-22T10:53:20.329Z,17.86
2023-04-22T10:54:20.338Z,17.78
2023-04-22T10:55:20.325Z,17.77
2023-04-22T10:56:20.320Z,17.81
2023-04-22T10:57:20.310Z,17.59
2023-04-22T10:58:20.750Z,17.72
2023-04-22T10:59:20.289Z,17.74
2023-04-22T11:00:20.259Z,17.51
2023-04-22T11:01:20.250Z,17.74
2023-04-22T11:02:20.300Z,17.77
2023-04-22T11:03:20.400Z,18.00
2023-04-22T11:04:20.289Z,18.11
2023-04-22T11:05:20.217Z,18.48
2023-04-22T11:06:20.207Z,18.65
2023-04-22T11:07:20.176Z,18.76
2023-04-22T11:08:20.170Z,18.92
2023-04-22T11:09:20.170Z,19.07
2023-04-22T11:10:20.163Z,19.13
2023-04-22T11:11:20.189Z,19.21
2023-04-22T11:12:20.183Z,18.55
2023-04-22T11:13:20.104Z,18.15
2023-04-22T11:14:20.094Z,18.20
2023-04-22T11:15:20.078Z,18.29
2023-04-22T11:16:21.054Z,18.66
2023-04-22T11:17:20.055Z,18.84
2023-04-22T11:18:20.074Z,18.99
2023-04-22T11:19:20.036Z,19.10
2023-04-22T11:20:20.031Z,19.06
2023-04-22T11:21:20.017Z,18.85
2023-04-22T11:22:20.021Z,18.60
2023-04-22T11:23:20.002Z,18.37
2023-04-22T11:24:27.628Z,18.33
2023-04-22T11:25:28.799Z,18.54
2023-04-22T11:26:19.965Z,18.63
2023-04-22T11:27:27.563Z,18.75
2023-04-22T11:28:27.047Z,19.00
2023-04-22T11:29:27.059Z,19.21
2023-04-22T11:30:27.073Z,19.46
2023-04-22T11:31:19.998Z,19.63
2023-04-22T11:32:19.889Z,19.66
2023-04-22T11:33:27.073Z,19.44
2023-04-22T11:34:19.890Z,19.10
2023-04-22T11:35:19.860Z,18.72
2023-04-22T11:36:27.273Z,18.67
2023-04-22T11:37:19.843Z,18.63
2023-04-22T11:38:27.448Z,18.63
2023-04-22T11:39:29.509Z,18.67
2023-04-22T11:40:29.218Z,18.92
2023-04-22T11:41:26.950Z,19.13
2023-04-22T11:42:26.955Z,19.31
2023-04-22T11:43:26.936Z,19.06
2023-04-22T11:44:26.941Z,19.02
2023-04-22T11:45:28.660Z,19.25
2023-04-22T11:46:21.146Z,18.98
2023-04-22T11:47:19.713Z,18.51
2023-04-22T11:48:19.724Z,18.54
2023-04-22T11:49:19.692Z,18.81
2023-04-22T11:50:19.694Z,19.07
2023-04-22T11:51:19.688Z,19.14
2023-04-22T11:52:20.819Z,19.00
2023-04-22T11:53:19.648Z,18.87
2023-04-22T11:54:19.645Z,19.16
2023-04-22T11:55:19.633Z,19.37
2023-04-22T11:56:19.644Z,19.41
2023-04-22T11:57:19.601Z,19.51
2023-04-22T11:58:19.596Z,19.81
2023-04-22T11:59:19.599Z,19.32
2023-04-22T12:00:19.654Z,19.37
2023-04-22T12:01:19.654Z,19.59
2023-04-22T12:02:19.692Z,19.61
2023-04-22T12:03:19.752Z,19.28
2023-04-22T12:04:19.628Z,19.06
2023-04-22T12:05:19.523Z,18.95
2023-04-22T12:06:19.498Z,18.94
2023-04-22T12:07:19.498Z,18.82
2023-04-22T12:08:19.474Z,18.81
2023-04-22T12:09:19.484Z,18.73
2023-04-22T12:10:19.483Z,18.91
2023-04-22T12:11:19.446Z,19.14
2023-04-22T12:12:19.432Z,19.37
2023-04-22T12:13:19.442Z,19.51
2023-04-22T12:14:19.432Z,19.54
2023-04-22T12:15:19.408Z,19.65
2023-04-22T12:16:20.019Z,19.74
2023-04-22T12:17:19.437Z,19.62
2023-04-22T12:18:19.380Z,19.63
2023-04-22T12:19:19.361Z,19.68
2023-04-22T12:20:19.352Z,19.87
2023-04-22T12:21:19.375Z,20.05
2023-04-22T12:22:19.318Z,20.42
2023-04-22T12:23:19.303Z,20.48
2023-04-22T12:24:19.295Z,20.55
2023-04-22T12:25:19.306Z,20.54
2023-04-22T12:26:19.267Z,20.70
2023-04-22T12:27:19.278Z,20.57
2023-04-22T12:28:19.245Z,20.62
2023-04-22T12:29:19.237Z,20.77
2023-04-22T12:30:19.245Z,20.92
2023-04-22T12:31:19.274Z,21.13
2023-04-22T12:32:19.203Z,21.07
2023-04-22T12:33:19.188Z,21.10
2023-04-22T12:34:19.183Z,20.74
2023-04-22T12:35:20.881Z,20.47
2023-04-22T12:36:19.162Z,20.39
2023-04-22T12:37:19.157Z,20.21
2023-04-22T12:38:19.144Z,20.29
2023-04-22T12:39:19.132Z,20.33
2023-04-22T12:40:19.143Z,20.11
2023-04-22T12:41:19.141Z,20.28
2023-04-22T12:42:19.097Z,20.33
2023-04-22T12:43:19.118Z,20.23
2023-04-22T12:44:19.077Z,20.16
2023-04-22T12:45:19.065Z,20.11
2023-04-22T12:46:19.096Z,20.26
2023-04-22T12:47:19.102Z,20.06
2023-04-22T12:48:19.028Z,19.46
2023-04-22T12:49:19.031Z,19.33
2023-04-22T12:50:19.001Z,19.47
2023-04-22T12:51:19.029Z,19.55
2023-04-22T12:52:18.983Z,19.74
2023-04-22T12:53:18.982Z,19.94
2023-04-22T12:54:18.978Z,20.06
2023-04-22T12:55:19.009Z,20.11
2023-04-22T12:56:18.934Z,20.24
2023-04-22T12:57:18.949Z,20.41
2023-04-22T12:58:18.911Z,20.67
2023-04-22T12:59:18.977Z,20.85
2023-04-22T13:00:18.895Z,21.09
2023-04-22T13:01:18.935Z,21.12
2023-04-22T13:02:18.985Z,21.19
2023-04-22T13:03:18.957Z,21.17
2023-04-22T13:04:18.938Z,20.99
2023-04-22T13:05:18.828Z,20.70
2023-04-22T13:06:18.827Z,20.26
2023-04-22T13:07:18.823Z,19.61